Time;durP1;ratioP1;P1;durP2;ratioP2;P2;SDS_P1;SDS_P2;PMS_P1;PMS_P2;Temp;Humidity;BMP_temperature;BMP_pressure;BME280_temperature;BME280_humidity;BME280_pressure;Samples;Min_cycle;Max_cycle;Signal;HPM_P1;HPM_P2
2023/07/01 00:00:32;;;;;;;;;;;;;;;21.60;45.65;100933.53;5059836;28;20066;-86
2023/07/01 00:02:57;;;;;;;;;;;;;;;21.60;45.79;100938.97;5060582;28;19923;-86
2023/07/01 00:05:23;;;;;;;;;;;;;;;21.56;45.64;100933.38;5058761;28;20356;-85
2023/07/01 00:07:48;;;;;;;;;;;;;;;21.55;45.79;100929.03;5062662;28;19986;-86
2023/07/01 00:10:13;;;;;;;;;;;;;;;21.55;45.92;100928.22;5057874;28;19963;-85
2023/07/01 00:12:39;;;;;;;;;;;;;;;21.55;45.77;100933.69;5058037;28;20414;-86
2023/07/01 00:15:04;;;;;;;;;;;;;;;21.53;45.61;100927.72;5057329;28;19916;-85
2023/07/01 00:17:29;;;;;;;;;;;;;;;21.51;45.67;100925.31;5060908;28;19944;-86
2023/07/01 00:19:55;;;;;;;;;;;;;;;21.49;45.65;100927.56;5056481;28;19917;-86
2023/07/01 00:22:20;;;;;;;;;;;;;;;21.45;45.71;100926.59;5059446;28;19920;-85
2023/07/01 00:24:45;;;;;;;;;;;;;;;21.36;45.76;100923.84;5057246;28;19920;-85
2023/07/01 00:27:11;;;;;;;;;;;;;;;21.28;45.78;100924.63;5059080;28;19995;-85
2023/07/01 00:29:36;;;;;;;;;;;;;;;21.24;45.87;100937.28;5056480;28;19916;-86
2023/07/01 00:32:01;;;;;;;;;;;;;;;21.21;45.97;100926.16;5058486;28;20387;-86
2023/07/01 00:34:26;;;;;;;;;;;;;;;21.17;46.07;100930.63;5057685;28;19940;-86
2023/07/01 00:36:52;;;;;;;;;;;;;;;21.17;46.38;100925.97;5058305;28;19921;-86
2023/07/01 00:39:17;;;;;;;;;;;;;;;21.18;46.19;100926.78;5060624;28;19922;-86
2023/07/01 00:41:42;;;;;;;;;;;;;;;21.19;46.29;100923.75;5055991;28;19928;-86
2023/07/01 00:44:08;;;;;;;;;;;;;;;21.18;46.21;100913.94;5056993;28;19929;-86
2023/07/01 00:46:33;;;;;;;;;;;;;;;21.18;46.18;100916.69;5056521;28;19920;-85
2023/07/01 00:49:00;;;;;;;;;;;;;;;21.17;46.26;100917.00;5056858;28;20381;-86
2023/07/01 00:51:26;;;;;;;;;;;;;;;21.15;46.07;100911.84;5057417;28;20303;-85
2023/07/01 00:53:52;;;;;;;;;;;;;;;21.14;46.28;100910.25;5055722;28;20476;-86
2023/07/01 00:56:17;;;;;;;;;;;;;;;21.15;46.33;100902.88;5057813;28;20011;-86
2023/07/01 00:58:42;;;;;;;;;;;;;;;21.13;46.51;100908.66;5064694;28;19920;-85
2023/07/01 01:01:11;;;;;;;;;;;;;;;21.09;46.38;100907.69;5055639;28;19966;-86
2023/07/01 01:03:47;;;;;;;;;;;;;;;21.07;46.70;100909.91;5056869;28;19916;-86
2023/07/01 01:06:39;;;;;;;;;;;;;;;21.05;46.52;100907.50;5058300;28;19939;-86
2023/07/01 01:09:10;;;;;;;;;;;;;;;21.06;46.49;100902.88;5055005;28;20385;-85
2023/07/01 01:11:37;;;;;;;;;;;;;;;21.07;46.45;100899.03;5056092;28;20342;-86
2023/07/01 01:14:03;;;;;;;;;;;;;;;21.09;46.32;100908.47;5057959;28;19920;-85
2023/07/01 01:16:29;;;;;;;;;;;;;;;21.10;46.39;100899.19;5055400;28;19944;-86
2023/07/01 01:18:57;;;;;;;;;;;;;;;21.09;46.61;100902.22;5054311;28;19917;-86
2023/07/01 01:21:24;;;;;;;;;;;;;;;21.09;46.57;100891.34;5056393;28;19977;-86
2023/07/01 01:23:54;;;;;;;;;;;;;;;21.09;46.40;100888.59;5055296;28;19916;-85
2023/07/01 01:26:22;;;;;;;;;;;;;;;21.08;46.48;100889.72;5061099;28;19916;-85
2023/07/01 01:28:48;;;;;;;;;;;;;;;21.08;46.53;100887.00;5056379;28;19927;-86
2023/07/01 01:31:14;;;;;;;;;;;;;;;21.07;46.61;100882.69;5062309;28;19939;-86
2023/07/01 01:33:42;;;;;;;;;;;;;;;21.08;46.54;100890.53;5058528;28;20456;-86
2023/07/01 01:36:17;;;;;;;;;;;;;;;21.06;46.64;100887.31;5056131;28;19986;-86
2023/07/01 01:38:42;;;;;;;;;;;;;;;21.05;46.74;100895.81;5055504;28;20570;-86
2023/07/01 01:41:11;;;;;;;;;;;;;;;21.02;46.79;100891.81;5057917;28;19983;-85
2023/07/01 01:43:37;;;;;;;;;;;;;;;21.00;46.79;100891.28;5059920;28;19924;-85
2023/07/01 01:46:04;;;;;;;;;;;;;;;20.98;46.79;100888.06;5054840;28;19970;-85
2023/07/01 01:48:30;;;;;;;;;;;;;;;20.97;46.98;100888.41;5055849;28;19917;-85
2023/07/01 01:50:56;;;;;;;;;;;;;;;20.95;46.89;100887.91;5055549;28;19924;-85
2023/07/01 01:53:23;;;;;;;;;;;;;;;20.93;46.68;100882.78;5056092;28;19924;-85
2023/07/01 01:55:50;;;;;;;;;;;;;;;20.92;46.83;100880.38;5055287;28;19924;-85
2023/07/01 01:58:16;;;;;;;;;;;;;;;20.89;46.79;100870.91;5054868;28;19921;-85
2023/07/01 02:00:41;;;;;;;;;;;;;;;20.89;47.08;100875.56;5060585;28;19920;-86
2023/07/01 02:03:06;;;;;;;;;;;;;;;20.89;46.81;100873.63;5057927;28;19916;-86
2023/07/01 02:05:32;;;;;;;;;;;;;;;20.89;46.87;100875.56;5055356;28;19952;-86
2023/07/01 02:08:01;;;;;;;;;;;;;;;20.88;46.79;100873.94;5061086;28;20011;-85
2023/07/01 02:10:27;;;;;;;;;;;;;;;20.88;47.01;100868.50;5053948;28;20054;-86
2023/07/01 02:12:52;;;;;;;;;;;;;;;20.87;46.91;100870.44;5054091;28;20003;-85
2023/07/01 02:15:17;;;;;;;;;;;;;;;20.86;46.88;100871.53;5055087;28;20379;-86
2023/07/01 02:17:43;;;;;;;;;;;;;;;20.84;47.08;100868.34;5054391;28;19924;-86
2023/07/01 02:20:09;;;;;;;;;;;;;;;20.81;46.88;100869.75;5054425;28;19917;-86
2023/07/01 02:22:35;;;;;;;;;;;;;;;20.80;46.91;100868.13;5054464;28;19978;-86
2023/07/01 02:25:00;;;;;;;;;;;;;;;20.78;46.96;100859.47;5055867;28;19959;-86
2023/07/01 02:27:25;;;;;;;;;;;;;;;20.76;46.90;100856.28;5054919;28;19920;-85
2023/07/01 02:29:51;;;;;;;;;;;;;;;20.74;47.06;100858.50;5058057;28;19917;-86
2023/07/01 02:32:16;;;;;;;;;;;;;;;20.72;47.12;100857.22;5054828;28;19917;-85
2023/07/01 02:34:41;;;;;;;;;;;;;;;20.69;46.98;100861.38;5057493;28;19920;-86
2023/07/01 02:37:07;;;;;;;;;;;;;;;20.70;46.92;100856.72;5053440;28;19924;-85
2023/07/01 02:39:32;;;;;;;;;;;;;;;20.68;46.95;100846.16;5054983;28;19916;-86
2023/07/01 02:41:57;;;;;;;;;;;;;;;20.68;46.88;100846.16;5052705;28;19917;-86
2023/07/01 02:44:23;;;;;;;;;;;;;;;20.66;46.97;100842.16;5054428;28;19927;-85
2023/07/01 02:46:48;;;;;;;;;;;;;;;20.65;46.96;100841.34;5055143;28;19924;-86
2023/07/01 02:49:13;;;;;;;;;;;;;;;20.61;47.07;100843.06;5056680;28;19917;-85
2023/07/01 02:51:40;;;;;;;;;;;;;;;20.59;47.27;100834.41;5057768;28;19935;-85
2023/07/01 02:54:05;;;;;;;;;;;;;;;20.55;47.17;100840.78;5051865;28;19924;-86
2023/07/01 02:56:30;;;;;;;;;;;;;;;20.51;47.10;100837.91;5055572;28;19920;-86
2023/07/01 02:58:55;;;;;;;;;;;;;;;20.48;47.25;100839.34;5058146;28;19925;-86
2023/07/01 03:01:21;;;;;;;;;;;;;;;20.50;47.33;100831.66;5054714;28;19967;-85
2023/07/01 03:03:49;;;;;;;;;;;;;;;20.50;47.44;100828.94;5068162;28;19950;-86
2023/07/01 03:06:15;;;;;;;;;;;;;;;20.54;47.54;100822.84;5055186;28;19917;-86
2023/07/01 03:08:40;;;;;;;;;;;;;;;20.57;47.62;100825.75;5054489;28;19920;-86
2023/07/01 03:11:05;;;;;;;;;;;;;;;20.61;47.88;100821.28;5053668;28;19927;-86
2023/07/01 03:13:31;;;;;;;;;;;;;;;20.65;47.74;100819.56;5054780;28;19924;-85
2023/07/01 03:15:56;;;;;;;;;;;;;;;20.69;47.81;100812.38;5056600;28;19920;-86
2023/07/01 03:18:22;;;;;;;;;;;;;;;20.71;47.77;100817.50;5050989;28;20300;-85
2023/07/01 03:20:47;;;;;;;;;;;;;;;20.74;47.67;100817.66;5052571;28;19921;-86
2023/07/01 03:23:12;;;;;;;;;;;;;;;20.76;47.81;100823.59;5053594;28;19952;-86
2023/07/01 03:25:38;;;;;;;;;;;;;;;20.78;47.84;100815.91;5052552;28;20222;-86
2023/07/01 03:28:04;;;;;;;;;;;;;;;20.80;47.80;100810.94;5054430;28;19917;-86
2023/07/01 03:30:30;;;;;;;;;;;;;;;20.84;47.76;100808.44;5056898;28;19928;-86
2023/07/01 03:32:56;;;;;;;;;;;;;;;20.88;47.95;100805.88;5058483;28;19924;-86
2023/07/01 03:35:21;;;;;;;;;;;;;;;20.92;47.76;100806.84;5057171;28;19924;-85
2023/07/01 03:37:47;;;;;;;;;;;;;;;20.96;48.03;100803.16;5056944;28;19925;-86
2023/07/01 03:40:12;;;;;;;;;;;;;;;20.98;47.99;100805.56;5054576;28;19956;-85
2023/07/01 03:42:41;;;;;;;;;;;;;;;20.99;47.95;100804.44;5058704;28;20311;-86
2023/07/01 03:45:07;;;;;;;;;;;;;;;21.00;48.04;100797.88;5056196;28;19971;-86
2023/07/01 03:47:34;;;;;;;;;;;;;;;21.01;47.93;100792.13;5058104;28;20309;-85
2023/07/01 03:49:59;;;;;;;;;;;;;;;21.04;47.95;100791.50;5056156;28;19943;-86
2023/07/01 03:52:25;;;;;;;;;;;;;;;21.10;48.03;100789.41;5057379;28;20416;-85
2023/07/01 03:54:50;;;;;;;;;;;;;;;21.13;48.16;100777.88;5056380;28;19948;-86
2023/07/01 03:57:15;;;;;;;;;;;;;;;21.17;48.30;100783.50;5057328;28;20144;-86
2023/07/01 03:59:41;;;;;;;;;;;;;;;21.23;48.09;100783.03;5057829;28;20114;-86
2023/07/01 04:02:06;;;;;;;;;;;;;;;21.29;48.23;100795.41;5056238;28;19916;-86
2023/07/01 04:04:32;;;;;;;;;;;;;;;21.35;48.00;100785.94;5056071;28;20018;-86
2023/07/01 04:06:57;;;;;;;;;;;;;;;21.41;48.07;100779.25;5055227;28;19916;-86
2023/07/01 04:09:22;;;;;;;;;;;;;;;21.48;48.16;100784.19;5059434;28;20304;-86
2023/07/01 04:11:48;;;;;;;;;;;;;;;21.56;48.23;100788.06;5055764;28;19942;-86
2023/07/01 04:14:15;;;;;;;;;;;;;;;21.63;48.07;100785.66;5055385;28;19983;-86
2023/07/01 04:16:40;;;;;;;;;;;;;;;21.67;48.03;100781.97;5060688;28;19929;-86
2023/07/01 04:19:08;;;;;;;;;;;;;;;21.71;48.29;100782.91;5055511;28;19923;-86
2023/07/01 04:21:33;;;;;;;;;;;;;;;21.74;48.36;100778.75;5057503;28;19917;-85
2023/07/01 04:24:00;;;;;;;;;;;;;;;21.78;48.42;100777.00;5055131;28;19927;-86
2023/07/01 04:26:27;;;;;;;;;;;;;;;21.82;48.42;100772.50;5061336;28;20209;-86
2023/07/01 04:28:52;;;;;;;;;;;;;;;21.87;48.56;100791.41;5057310;28;19921;-86
2023/07/01 04:31:18;;;;;;;;;;;;;;;21.94;48.61;100769.09;5055766;28;20611;-86
2023/07/01 04:33:44;;;;;;;;;;;;;;;21.98;48.49;100779.03;5060945;28;20014;-86
2023/07/01 04:36:10;;;;;;;;;;;;;;;22.03;48.59;100772.59;5058552;28;20030;-86
2023/07/01 04:38:35;;;;;;;;;;;;;;;22.08;48.69;100768.94;5057387;28;19920;-86
2023/07/01 04:41:01;;;;;;;;;;;;;;;22.11;48.76;100771.03;5054656;28;19917;-86
2023/07/01 04:43:26;;;;;;;;;;;;;;;22.15;49.00;100772.78;5059977;28;19970;-85
2023/07/01 04:45:52;;;;;;;;;;;;;;;22.22;49.04;100769.53;5057463;28;20125;-86
2023/07/01 04:48:18;;;;;;;;;;;;;;;22.26;48.98;100773.22;5057663;28;20345;-86
2023/07/01 04:50:43;;;;;;;;;;;;;;;22.29;49.00;100770.66;5056650;28;19936;-86
2023/07/01 04:53:09;;;;;;;;;;;;;;;22.33;49.13;100770.81;5058076;28;20027;-85
2023/07/01 04:55:34;;;;;;;;;;;;;;;22.37;49.09;100766.28;5061140;28;20399;-86
2023/07/01 04:57:59;;;;;;;;;;;;;;;22.43;49.36;100754.03;5061212;28;19925;-86
2023/07/01 05:00:25;;;;;;;;;;;;;;;22.46;49.34;100753.41;5056307;28;19920;-85
2023/07/01 05:02:50;;;;;;;;;;;;;;;22.50;49.48;100759.81;5059415;28;20756;-86
2023/07/01 05:05:15;;;;;;;;;;;;;;;22.56;49.42;100753.03;5057129;28;20380;-86
2023/07/01 05:07:41;;;;;;;;;;;;;;;22.59;49.63;100749.66;5058195;28;20411;-86
2023/07/01 05:10:06;;;;;;;;;;;;;;;22.62;49.55;100750.91;5055330;28;20039;-85
2023/07/01 05:12:32;;;;;;;;;;;;;;;22.66;49.50;100749.16;5059607;28;19920;-86
2023/07/01 05:14:57;;;;;;;;;;;;;;;22.71;49.63;100753.63;5058069;28;20384;-86
2023/07/01 05:17:22;;;;;;;;;;;;;;;22.77;49.67;100746.81;5055874;28;19928;-86
2023/07/01 05:19:47;;;;;;;;;;;;;;;22.81;49.85;100743.13;5055860;28;19920;-86
2023/07/01 05:22:13;;;;;;;;;;;;;;;22.86;49.96;100744.88;5057539;28;19970;-86
2023/07/01 05:24:38;;;;;;;;;;;;;;;22.94;49.86;100741.28;5051345;28;19928;-86
2023/07/01 05:27:04;;;;;;;;;;;;;;;23.02;50.05;100742.38;5057080;28;20335;-86
2023/07/01 05:29:29;;;;;;;;;;;;;;;23.09;49.92;100742.66;5058440;28;19920;-86
2023/07/01 05:31:55;;;;;;;;;;;;;;;23.15;49.84;100742.09;5056388;28;19926;-86
2023/07/01 05:34:21;;;;;;;;;;;;;;;23.16;49.92;100737.44;5054651;28;19924;-86
2023/07/01 05:36:46;;;;;;;;;;;;;;;23.16;49.92;100738.25;5055050;28;20479;-86
2023/07/01 05:39:11;;;;;;;;;;;;;;;23.22;50.00;100738.84;5055877;28;20137;-86
2023/07/01 05:41:37;;;;;;;;;;;;;;;23.31;50.15;100738.78;5053856;28;20182;-86
2023/07/01 05:44:02;;;;;;;;;;;;;;;23.35;50.06;100734.28;5053627;28;20027;-86
2023/07/01 05:46:27;;;;;;;;;;;;;;;23.38;50.28;100739.06;5057036;28;19932;-86
2023/07/01 05:48:53;;;;;;;;;;;;;;;23.44;50.53;100737.72;5056840;28;20300;-86
2023/07/01 05:51:18;;;;;;;;;;;;;;;23.53;50.51;100741.19;5056253;28;19924;-86
2023/07/01 05:53:46;;;;;;;;;;;;;;;23.61;50.38;100739.53;5055497;28;20028;-85
2023/07/01 05:56:12;;;;;;;;;;;;;;;23.70;50.51;100737.53;5056690;28;20000;-86
2023/07/01 05:58:38;;;;;;;;;;;;;;;23.76;50.53;100739.72;5058499;28;20003;-86
2023/07/01 06:01:03;;;;;;;;;;;;;;;23.87;50.56;100739.25;5053359;28;20354;-86
2023/07/01 06:03:28;;;;;;;;;;;;;;;23.98;50.52;100737.72;5053021;28;20418;-85
2023/07/01 06:05:53;;;;;;;;;;;;;;;24.06;50.33;100734.91;5052693;28;19935;-87
2023/07/01 06:08:19;;;;;;;;;;;;;;;24.11;50.59;100736.59;5056020;28;20054;-87
2023/07/01 06:10:44;;;;;;;;;;;;;;;24.18;50.47;100739.56;5054772;28;19920;-86
2023/07/01 06:13:09;;;;;;;;;;;;;;;24.29;50.34;100734.50;5056229;28;20438;-86
2023/07/01 06:15:35;;;;;;;;;;;;;;;24.39;50.41;100734.03;5057763;28;19920;-86
2023/07/01 06:18:00;;;;;;;;;;;;;;;24.46;50.04;100738.97;5055011;28;20190;-87
2023/07/01 06:20:25;;;;;;;;;;;;;;;24.50;49.96;100729.72;5056141;28;19920;-86
2023/07/01 06:22:51;;;;;;;;;;;;;;;24.53;50.24;100722.75;5053567;28;20376;-87
2023/07/01 06:25:16;;;;;;;;;;;;;;;24.56;49.98;100722.84;5059261;28;19942;-87
2023/07/01 06:27:41;;;;;;;;;;;;;;;24.61;50.30;100725.38;5054569;28;19920;-87
2023/07/01 06:30:07;;;;;;;;;;;;;;;24.70;50.07;100725.25;5050824;28;19917;-86
2023/07/01 06:32:32;;;;;;;;;;;;;;;24.80;49.85;100727.53;5054599;28;19920;-86
2023/07/01 06:34:57;;;;;;;;;;;;;;;24.90;49.76;100721.56;5052751;28;19928;-87
2023/07/01 06:37:23;;;;;;;;;;;;;;;24.98;49.69;100717.94;5055909;28;20277;-87
2023/07/01 06:39:48;;;;;;;;;;;;;;;25.09;49.73;100717.47;5055224;28;19924;-87
2023/07/01 06:42:13;;;;;;;;;;;;;;;25.18;49.64;100721.66;5063074;28;19916;-86
2023/07/01 06:44:39;;;;;;;;;;;;;;;25.23;49.22;100718.69;5052309;28;19921;-86
2023/07/01 06:47:05;;;;;;;;;;;;;;;25.31;49.19;100714.19;5054721;28;20335;-87
2023/07/01 06:49:30;;;;;;;;;;;;;;;25.36;48.77;100711.22;5054197;28;19920;-85
2023/07/01 06:51:56;;;;;;;;;;;;;;;25.44;48.83;100713.00;5057843;28;19928;-86
2023/07/01 06:54:21;;;;;;;;;;;;;;;25.59;48.68;100711.47;5052720;28;20425;-85
2023/07/01 06:56:46;;;;;;;;;;;;;;;25.68;48.46;100709.41;5055288;28;19928;-86
2023/07/01 06:59:11;;;;;;;;;;;;;;;25.76;48.12;100711.19;5058026;28;19920;-86
2023/07/01 07:01:37;;;;;;;;;;;;;;;25.86;48.05;100707.94;5061219;28;19921;-86
2023/07/01 07:04:02;;;;;;;;;;;;;;;25.87;47.91;100697.75;5056279;28;19917;-85
2023/07/01 07:06:27;;;;;;;;;;;;;;;25.96;47.82;100706.59;5062501;28;19923;-86
2023/07/01 07:08:53;;;;;;;;;;;;;;;26.08;47.57;100702.97;5052189;28;20641;-85
2023/07/01 07:11:19;;;;;;;;;;;;;;;26.13;47.20;100695.28;5057889;28;20557;-85
2023/07/01 07:13:44;;;;;;;;;;;;;;;26.17;47.27;100700.84;5053314;28;19966;-85
2023/07/01 07:16:09;;;;;;;;;;;;;;;26.22;47.33;100697.06;5061673;28;19920;-85
2023/07/01 07:18:35;;;;;;;;;;;;;;;26.29;46.85;100703.50;5053208;28;19940;-85
2023/07/01 07:21:00;;;;;;;;;;;;;;;26.37;47.05;100704.50;5053015;28;19934;-85
2023/07/01 07:23:25;;;;;;;;;;;;;;;26.44;46.96;100699.19;5056475;28;20272;-84
2023/07/01 07:25:51;;;;;;;;;;;;;;;26.52;46.67;100683.66;5053766;28;19924;-85
2023/07/01 07:28:16;;;;;;;;;;;;;;;26.56;46.19;100690.81;5052366;28;19921;-85
2023/07/01 07:30:42;;;;;;;;;;;;;;;26.60;46.11;100686.22;5060289;28;19916;-85
2023/07/01 07:33:07;;;;;;;;;;;;;;;26.58;45.88;100688.53;5050943;28;19920;-85
2023/07/01 07:35:33;;;;;;;;;;;;;;;26.58;45.18;100677.56;5048848;28;19924;-84
2023/07/01 07:37:58;;;;;;;;;;;;;;;26.64;45.39;100678.84;5054580;28;19921;-84
2023/07/01 07:40:23;;;;;;;;;;;;;;;26.74;44.98;100680.22;5058078;28;19943;-85
2023/07/01 07:42:52;;;;;;;;;;;;;;;26.84;44.43;100673.41;5057862;28;20307;-84
2023/07/01 07:45:19;;;;;;;;;;;;;;;26.96;43.39;100676.03;5057989;28;20007;-84
2023/07/01 07:47:44;;;;;;;;;;;;;;;27.06;44.15;100675.47;5055486;28;19921;-85
2023/07/01 07:50:09;;;;;;;;;;;;;;;27.15;43.36;100673.31;5059000;28;19924;-83
2023/07/01 07:52:35;;;;;;;;;;;;;;;27.17;43.26;100673.75;5052757;28;19951;-83
2023/07/01 07:55:00;;;;;;;;;;;;;;;27.13;42.92;100669.34;5052915;28;20015;-83
2023/07/01 07:57:25;;;;;;;;;;;;;;;27.07;42.61;100668.81;5048259;28;19924;-83
2023/07/01 07:59:52;;;;;;;;;;;;;;;27.02;42.13;100666.34;5056045;28;20347;-83
2023/07/01 08:02:17;;;;;;;;;;;;;;;26.96;42.51;100662.28;5055218;28;19920;-82
2023/07/01 08:04:42;;;;;;;;;;;;;;;26.94;42.41;100665.38;5056989;28;20299;-82
2023/07/01 08:07:08;;;;;;;;;;;;;;;26.96;42.26;100657.56;5056522;28;20351;-82
2023/07/01 08:09:33;;;;;;;;;;;;;;;26.96;42.27;100657.56;5056619;28;20380;-82
2023/07/01 08:11:59;;;;;;;;;;;;;;;26.98;41.53;100662.72;5054213;28;19924;-82
2023/07/01 08:14:25;;;;;;;;;;;;;;;27.02;41.80;100656.16;5053348;28;19924;-81
2023/07/01 08:16:50;;;;;;;;;;;;;;;27.12;41.90;100656.75;5055652;28;20094;-81
2023/07/01 08:19:15;;;;;;;;;;;;;;;27.26;41.58;100644.03;5055873;28;19942;-82
2023/07/01 08:21:41;;;;;;;;;;;;;;;27.35;41.12;100647.38;5062608;28;20003;-82
2023/07/01 08:24:10;;;;;;;;;;;;;;;27.52;40.96;100640.63;5059900;28;19916;-82
2023/07/01 08:26:35;;;;;;;;;;;;;;;27.74;41.30;100636.31;5064480;28;20354;-82
2023/07/01 08:29:00;;;;;;;;;;;;;;;27.86;39.50;100632.59;5057363;28;19952;-81
2023/07/01 08:31:26;;;;;;;;;;;;;;;27.97;40.01;100630.81;5055865;28;20436;-84
2023/07/01 08:33:51;;;;;;;;;;;;;;;28.00;39.28;100625.34;5055233;28;19939;-80
2023/07/01 08:36:16;;;;;;;;;;;;;;;28.02;38.53;100618.69;5063481;28;19951;-82
2023/07/01 08:38:42;;;;;;;;;;;;;;;28.09;39.70;100608.56;5058448;28;20011;-82
2023/07/01 08:41:09;;;;;;;;;;;;;;;28.28;39.35;100618.72;5055516;28;19921;-82
2023/07/01 08:43:35;;;;;;;;;;;;;;;28.42;38.59;100612.63;5061427;28;19928;-83
2023/07/01 08:46:04;;;;;;;;;;;;;;;28.43;37.32;100623.28;5065924;28;20361;-83
2023/07/01 08:48:30;;;;;;;;;;;;;;;28.45;39.12;100607.19;5064309;28;19968;-82
2023/07/01 08:51:08;;;;;;;;;;;;;;;28.53;39.09;100611.59;5060894;28;20018;-83
2023/07/01 08:53:33;;;;;;;;;;;;;;;28.49;38.28;100601.69;5060424;28;20385;-83
2023/07/01 08:55:59;;;;;;;;;;;;;;;28.40;37.88;100604.75;5061968;28;19925;-82
2023/07/01 08:58:25;;;;;;;;;;;;;;;28.41;38.17;100600.81;5058296;28;19974;-82
2023/07/01 09:00:51;;;;;;;;;;;;;;;28.62;38.10;100596.75;5057813;28;19920;-82
2023/07/01 09:03:17;;;;;;;;;;;;;;;28.87;37.76;100600.66;5060026;28;20408;-83
2023/07/01 09:05:42;;;;;;;;;;;;;;;29.05;35.58;100601.66;5054910;28;20281;-82
2023/07/01 09:08:07;;;;;;;;;;;;;;;29.13;36.35;100600.56;5060717;28;19917;-83
2023/07/01 09:10:34;;;;;;;;;;;;;;;29.16;36.15;100602.56;5053047;28;20361;-84
2023/07/01 09:13:08;;;;;;;;;;;;;;;29.17;36.16;100597.84;5055002;28;19924;-84
2023/07/01 09:15:41;;;;;;;;;;;;;;;29.24;36.40;100592.41;5057145;28;19999;-83
2023/07/01 09:18:18;;;;;;;;;;;;;;;29.44;36.45;100590.22;5059500;28;19928;-85
2023/07/01 09:20:43;;;;;;;;;;;;;;;29.61;35.32;100577.78;5058739;28;19978;-85
2023/07/01 09:23:08;;;;;;;;;;;;;;;29.63;35.20;100579.03;5059664;28;20369;-84
2023/07/01 09:25:33;;;;;;;;;;;;;;;29.61;35.14;100572.28;5055355;28;19924;-83
2023/07/01 09:27:59;;;;;;;;;;;;;;;29.69;35.08;100563.69;5055517;28;19924;-83
2023/07/01 09:30:24;;;;;;;;;;;;;;;29.90;34.09;100578.84;5057395;28;19925;-83
2023/07/01 09:32:50;;;;;;;;;;;;;;;30.01;33.97;100569.47;5059895;28;19954;-84
2023/07/01 09:35:16;;;;;;;;;;;;;;;30.07;34.30;100565.19;5057532;28;19925;-85
2023/07/01 09:37:41;;;;;;;;;;;;;;;30.23;33.97;100559.34;5062905;28;20442;-83
2023/07/01 09:40:26;;;;;;;;;;;;;;;30.26;33.88;100560.56;5063258;28;19970;-83
2023/07/01 09:42:52;;;;;;;;;;;;;;;30.24;33.58;100547.13;5060394;28;20518;-85
2023/07/01 09:45:18;;;;;;;;;;;;;;;30.25;33.47;100557.00;5062832;28;20011;-83
2023/07/01 09:47:43;;;;;;;;;;;;;;;30.36;33.62;100551.53;5062478;28;19916;-83
2023/07/01 09:50:19;;;;;;;;;;;;;;;30.56;32.63;100550.06;5062621;28;20529;-80
2023/07/01 09:52:45;;;;;;;;;;;;;;;30.71;33.08;100545.41;5061596;28;19943;-81
2023/07/01 09:55:10;;;;;;;;;;;;;;;30.83;32.16;100542.25;5057706;28;19916;-80
2023/07/01 09:57:36;;;;;;;;;;;;;;;30.88;32.07;100541.09;5058988;28;19931;-82
2023/07/01 10:00:03;;;;;;;;;;;;;;;30.71;31.45;100541.84;5063671;28;19924;-82
2023/07/01 10:02:28;;;;;;;;;;;;;;;30.62;31.17;100548.50;5062779;28;19997;-78
2023/07/01 10:04:55;;;;;;;;;;;;;;;30.56;31.76;100532.66;5055746;28;19979;-81
2023/07/01 10:07:20;;;;;;;;;;;;;;;30.49;30.19;100521.56;5059882;28;19916;-81
2023/07/01 10:09:47;;;;;;;;;;;;;;;30.49;31.63;100527.09;5050068;28;21276;-82
2023/07/01 10:12:14;;;;;;;;;;;;;;;30.51;32.01;100533.03;5058918;28;19967;-80
2023/07/01 10:14:42;;;;;;;;;;;;;;;30.57;30.44;100529.50;5060730;28;19928;-79
2023/07/01 10:17:07;;;;;;;;;;;;;;;30.66;31.20;100534.69;5057143;28;19969;-79
2023/07/01 10:19:33;;;;;;;;;;;;;;;30.73;31.01;100514.59;5054860;28;20351;-79
2023/07/01 10:22:18;;;;;;;;;;;;;;;30.73;30.75;100526.44;5062928;28;19916;-80
2023/07/01 10:24:43;;;;;;;;;;;;;;;30.62;30.34;100525.59;5057887;28;19924;-79
2023/07/01 10:27:08;;;;;;;;;;;;;;;30.51;30.63;100508.16;5061069;28;19917;-79
2023/07/01 10:29:34;;;;;;;;;;;;;;;30.36;30.95;100505.34;5061901;28;20470;-79
2023/07/01 10:32:08;;;;;;;;;;;;;;;30.22;31.03;100502.50;5057176;28;19931;-78
2023/07/01 10:34:51;;;;;;;;;;;;;;;30.26;31.20;100495.03;5058329;28;20005;-81
2023/07/01 10:37:17;;;;;;;;;;;;;;;30.43;30.62;100492.72;5058804;28;19933;-78
2023/07/01 10:39:43;;;;;;;;;;;;;;;30.57;30.43;100490.81;5055517;28;19927;-78
2023/07/01 10:42:24;;;;;;;;;;;;;;;30.72;30.68;100488.91;5052932;28;19921;-78
2023/07/01 10:44:50;;;;;;;;;;;;;;;30.80;29.45;100476.66;5055096;28;19929;-79
2023/07/01 10:47:15;;;;;;;;;;;;;;;30.91;28.75;100471.97;5054489;28;20482;-82
2023/07/01 10:50:13;;;;;;;;;;;;;;;31.00;29.73;100473.53;5061356;28;19932;-80
2023/07/01 10:53:00;;;;;;;;;;;;;;;30.98;29.79;100462.88;5020686;28;19917;-81
2023/07/01 10:55:49;;;;;;;;;;;;;;;31.01;30.15;100467.59;5059870;28;19924;-83
2023/07/01 10:58:15;;;;;;;;;;;;;;;31.06;29.80;100458.13;5060362;28;20607;-81
2023/07/01 11:00:40;;;;;;;;;;;;;;;30.94;28.57;100460.09;5059451;28;19916;-80
2023/07/01 11:03:31;;;;;;;;;;;;;;;30.81;29.83;100461.66;5057465;28;19921;-81
2023/07/01 11:06:00;;;;;;;;;;;;;;;30.80;30.28;100453.75;5057779;28;20007;-79
2023/07/01 11:08:26;;;;;;;;;;;;;;;30.99;30.44;100464.44;5051246;28;19924;-79
2023/07/01 11:10:51;;;;;;;;;;;;;;;30.97;28.37;100459.31;5056036;28;20482;-79
2023/07/01 11:13:17;;;;;;;;;;;;;;;30.81;29.28;100444.28;5057938;28;19917;-78
2023/07/01 11:15:42;;;;;;;;;;;;;;;30.74;29.08;100441.50;5051904;28;19924;-80
2023/07/01 11:18:08;;;;;;;;;;;;;;;30.94;29.00;100435.22;5055000;28;19960;-79
2023/07/01 11:20:48;;;;;;;;;;;;;;;31.13;29.26;100436.00;5053557;28;20351;-80
2023/07/01 11:23:13;;;;;;;;;;;;;;;31.21;28.39;100437.59;5055854;28;19924;-81
2023/07/01 11:25:41;;;;;;;;;;;;;;;31.22;28.83;100434.44;5056067;28;19924;-80
2023/07/01 11:28:07;;;;;;;;;;;;;;;31.14;28.93;100427.31;5048953;28;19924;-79
2023/07/01 11:30:32;;;;;;;;;;;;;;;31.25;28.94;100435.66;5051131;28;19952;-79
2023/07/01 11:33:09;;;;;;;;;;;;;;;31.36;28.09;100424.56;5053735;28;19923;-80
2023/07/01 11:35:50;;;;;;;;;;;;;;;31.38;28.23;100434.03;5051723;28;20629;-80
2023/07/01 11:38:22;;;;;;;;;;;;;;;31.27;27.97;100427.75;5054831;28;19928;-80
2023/07/01 11:40:47;;;;;;;;;;;;;;;31.18;28.06;100435.63;5050222;28;20732;-79
2023/07/01 11:43:14;;;;;;;;;;;;;;;31.06;27.19;100425.75;5051111;28;19968;-79
2023/07/01 11:45:46;;;;;;;;;;;;;;;31.03;27.80;100414.66;5055991;28;20036;-78
2023/07/01 11:48:11;;;;;;;;;;;;;;;30.99;27.47;100417.41;5049804;28;19923;-78
2023/07/01 11:50:49;;;;;;;;;;;;;;;30.91;27.87;100413.09;5050159;28;19924;-80
2023/07/01 11:53:15;;;;;;;;;;;;;;;31.03;27.97;100411.88;5053989;28;19917;-80
2023/07/01 11:55:40;;;;;;;;;;;;;;;31.03;27.03;100409.13;5057711;28;19916;-79
2023/07/01 11:58:23;;;;;;;;;;;;;;;30.92;27.32;100407.16;5058357;28;20023;-80
2023/07/01 12:00:48;;;;;;;;;;;;;;;30.84;27.43;100410.28;5061544;28;19929;-79
2023/07/01 12:03:13;;;;;;;;;;;;;;;30.74;27.45;100403.59;5054515;28;19924;-79
2023/07/01 12:05:42;;;;;;;;;;;;;;;30.69;27.39;100392.88;5054485;28;20111;-79
2023/07/01 12:08:08;;;;;;;;;;;;;;;30.61;27.29;100391.28;5055451;28;19920;-79
2023/07/01 12:10:35;;;;;;;;;;;;;;;30.57;27.70;100398.78;5059070;28;19990;-80
2023/07/01 12:13:00;;;;;;;;;;;;;;;30.52;28.08;100399.97;5053606;28;19924;-81
2023/07/01 12:15:26;;;;;;;;;;;;;;;30.52;28.37;100396.38;5054603;28;20304;-80
2023/07/01 12:17:53;;;;;;;;;;;;;;;30.51;28.06;100392.03;5052152;28;19932;-80
2023/07/01 12:20:20;;;;;;;;;;;;;;;30.42;27.62;100386.91;5058057;28;19927;-79
2023/07/01 12:22:45;;;;;;;;;;;;;;;30.32;27.95;100384.88;5051676;28;19997;-78
2023/07/01 12:25:11;;;;;;;;;;;;;;;30.20;27.12;100383.28;5052850;28;20327;-79
2023/07/01 12:27:36;;;;;;;;;;;;;;;30.23;28.28;100393.56;5059619;28;20036;-81
2023/07/01 12:30:07;;;;;;;;;;;;;;;30.24;27.84;100378.56;5056224;28;19967;-83
2023/07/01 12:32:32;;;;;;;;;;;;;;;30.37;27.72;100382.56;5058421;28;20395;-81